createdAt,value
2022-08-22T00:01:29.059Z,1.70
2022-08-22T00:02:59.807Z,1.30
2022-08-22T00:04:02.399Z,1.50
2022-08-22T00:06:35.227Z,1.40
2022-08-22T00:09:33.129Z,1.38
2022-08-22T00:12:18.783Z,1.65
2022-08-22T00:15:03.895Z,1.50
2022-08-22T00:17:40.151Z,1.52
2022-08-22T00:20:10.935Z,1.63
2022-08-22T00:22:52.050Z,1.60
2022-08-22T00:25:37.243Z,1.63
2022-08-22T00:28:24.991Z,1.60
2022-08-22T00:31:08.137Z,1.63
2022-08-22T00:34:00.347Z,1.52
2022-08-22T00:36:59.113Z,1.50
2022-08-22T00:39:34.615Z,1.50
2022-08-22T00:44:31.310Z,1.35
2022-08-22T00:47:16.332Z,1.38
2022-08-22T00:50:05.417Z,1.65
2022-08-22T00:53:03.191Z,1.30
2022-08-22T00:56:01.226Z,1.38
2022-08-22T00:58:52.560Z,1.58
2022-08-22T01:01:28.594Z,1.40
2022-08-22T01:04:27.053Z,1.33
2022-08-22T01:07:37.799Z,1.40
2022-08-22T01:10:46.856Z,1.60
2022-08-22T01:13:43.359Z,1.67
2022-08-22T01:16:27.296Z,1.75
2022-08-22T01:19:09.744Z,1.48
2022-08-22T01:22:09.803Z,1.40
2022-08-22T01:25:19.329Z,1.63
2022-08-22T01:28:19.859Z,1.55
2022-08-22T01:31:33.304Z,1.48
2022-08-22T01:34:13.043Z,1.80
2022-08-22T01:37:23.467Z,1.77
2022-08-22T01:40:09.807Z,1.55
2022-08-22T01:42:39.898Z,1.30
2022-08-22T01:45:44.460Z,1.58
2022-08-22T01:48:39.208Z,1.80
2022-08-22T01:51:27.355Z,1.48
2022-08-22T01:54:49.611Z,1.33
2022-08-22T01:57:18.701Z,1.42
2022-08-22T01:59:53.636Z,1.70
2022-08-22T02:02:46.419Z,1.55
2022-08-22T02:05:37.140Z,1.40
2022-08-22T02:08:30.438Z,1.65
2022-08-22T02:11:10.491Z,1.65
2022-08-22T02:14:15.134Z,1.40
2022-08-22T02:16:50.655Z,1.45
2022-08-22T02:19:18.805Z,1.80
2022-08-22T02:22:04.555Z,1.65
2022-08-22T02:24:34.698Z,1.58
2022-08-22T02:27:04.791Z,1.80
2022-08-22T02:29:41.251Z,2.00
2022-08-22T02:32:43.626Z,1.75
2022-08-22T02:35:24.577Z,1.50
2022-08-22T02:38:29.371Z,1.48
2022-08-22T02:41:14.128Z,1.48
2022-08-22T02:43:57.137Z,1.63
2022-08-22T02:46:29.823Z,1.60
2022-08-22T02:49:09.342Z,1.40
2022-08-22T02:52:04.525Z,1.50
2022-08-22T02:54:49.061Z,1.50
2022-08-22T02:57:40.365Z,1.30
2022-08-22T03:00:27.758Z,1.23
2022-08-22T03:03:02.973Z,1.42
2022-08-22T03:05:41.444Z,1.48
2022-08-22T03:08:22.451Z,1.38
2022-08-22T03:11:14.994Z,1.40
2022-08-22T03:14:03.056Z,1.30
2022-08-22T03:17:04.455Z,1.48
2022-08-22T03:19:51.103Z,1.23
2022-08-22T03:22:25.548Z,1.30
2022-08-22T03:25:26.616Z,1.40
2022-08-22T03:28:00.194Z,1.35
2022-08-22T03:30:56.181Z,1.05
2022-08-22T03:33:31.743Z,1.40
2022-08-22T03:36:31.498Z,1.52
2022-08-22T03:39:17.491Z,1.50
2022-08-22T03:41:44.694Z,1.35
2022-08-22T03:44:50.656Z,1.40
2022-08-22T03:47:56.019Z,1.40
2022-08-22T03:51:13.847Z,1.50
2022-08-22T03:53:46.435Z,1.40
2022-08-22T03:56:49.990Z,1.42
2022-08-22T03:59:43.098Z,1.45
2022-08-22T04:02:41.950Z,1.50
2022-08-22T04:05:17.708Z,1.58
2022-08-22T04:08:13.046Z,1.50
2022-08-22T04:10:52.071Z,1.80
2022-08-22T04:13:43.966Z,1.70
2022-08-22T04:16:42.065Z,1.50
2022-08-22T04:19:24.257Z,1.33
2022-08-22T04:22:14.075Z,1.67
2022-08-22T04:24:41.112Z,1.48
2022-08-22T04:27:30.066Z,1.60
2022-08-22T04:30:07.063Z,1.65
2022-08-22T04:32:48.932Z,1.60
2022-08-22T04:35:40.642Z,1.70
2022-08-22T04:38:42.876Z,1.73
2022-08-22T04:41:15.359Z,1.55
2022-08-22T04:43:56.554Z,1.60
2022-08-22T04:46:45.663Z,1.27
2022-08-22T04:49:38.791Z,1.80
2022-08-22T04:52:19.152Z,1.77
2022-08-22T04:55:09.922Z,1.70
2022-08-22T04:58:14.671Z,1.65
2022-08-22T05:01:23.303Z,1.70
2022-08-22T05:04:03.077Z,1.60
2022-08-22T05:06:33.904Z,1.80
2022-08-22T05:09:11.897Z,1.58
2022-08-22T05:11:43.376Z,1.50
2022-08-22T05:14:21.403Z,1.75
2022-08-22T05:16:53.223Z,2.05
2022-08-22T05:19:32.071Z,1.70
2022-08-22T05:22:00.898Z,1.52
2022-08-22T05:24:35.238Z,1.73
2022-08-22T05:27:11.371Z,1.55
2022-08-22T05:29:42.890Z,1.70
2022-08-22T05:32:23.024Z,1.67
2022-08-22T05:34:51.707Z,1.50
2022-08-22T05:37:41.139Z,1.63
2022-08-22T05:40:19.724Z,1.70
2022-08-22T05:42:48.614Z,1.83
2022-08-22T05:45:18.211Z,1.60
2022-08-22T05:48:05.964Z,1.90
2022-08-22T05:50:39.725Z,1.55
2022-08-22T05:53:22.440Z,1.80
2022-08-22T05:55:49.523Z,1.85
2022-08-22T05:58:22.059Z,1.70
2022-08-22T06:00:56.907Z,1.80
2022-08-22T06:04:00.121Z,2.10
2022-08-22T06:06:30.040Z,5.55
2022-08-22T06:09:18.687Z,7.65
2022-08-22T06:12:18.227Z,3.92
2022-08-22T06:15:10.483Z,1.33
2022-08-22T06:17:49.670Z,1.52
2022-08-22T06:20:28.773Z,1.50
2022-08-22T06:22:59.419Z,1.40
2022-08-22T06:25:34.812Z,1.27
2022-08-22T06:30:31.923Z,1.50
2022-08-22T06:33:12.892Z,1.60
2022-08-22T06:36:01.610Z,2.47
2022-08-22T06:38:52.057Z,1.95
2022-08-22T06:41:22.106Z,1.40
2022-08-22T06:43:52.772Z,1.67
2022-08-22T06:46:22.302Z,1.70
2022-08-22T06:48:49.853Z,1.60
2022-08-22T06:51:19.447Z,1.40
2022-08-22T06:53:53.629Z,1.33
2022-08-22T06:56:26.431Z,1.30
2022-08-22T06:58:58.536Z,1.23
2022-08-22T07:01:30.811Z,1.60
2022-08-22T07:04:07.462Z,1.10
2022-08-22T07:06:42.056Z,1.30
2022-08-22T07:09:28.733Z,1.23
2022-08-22T07:11:59.361Z,1.15
2022-08-22T07:14:33.200Z,1.42
2022-08-22T07:17:04.321Z,1.33
2022-08-22T07:19:33.867Z,2.17
2022-08-22T07:22:13.400Z,1.50
2022-08-22T07:24:48.523Z,1.50
2022-08-22T07:30:10.754Z,1.23
2022-08-22T07:32:56.795Z,1.10
2022-08-22T07:35:53.170Z,1.13
2022-08-22T07:38:43.080Z,1.08
2022-08-22T07:41:21.976Z,1.77
2022-08-22T07:44:06.445Z,1.17
2022-08-22T07:46:37.705Z,1.17
2022-08-22T07:49:21.312Z,1.27
2022-08-22T07:51:55.229Z,1.30
2022-08-22T07:54:45.536Z,1.23
2022-08-22T07:57:17.591Z,1.27
2022-08-22T07:59:59.561Z,1.42
2022-08-22T08:02:28.179Z,1.15
2022-08-22T08:04:57.543Z,1.17
2022-08-22T08:07:27.631Z,1.27
2022-08-22T08:10:00.070Z,1.50
2022-08-22T08:12:39.849Z,1.10
2022-08-22T08:15:11.985Z,1.05
2022-08-22T08:17:40.052Z,1.40
2022-08-22T08:20:11.563Z,1.10
2022-08-22T08:22:41.173Z,1.30
2022-08-22T08:25:09.023Z,1.30
2022-08-22T08:27:57.352Z,1.20
2022-08-22T08:30:59.507Z,1.15
2022-08-22T08:33:31.927Z,1.38
2022-08-22T08:36:39.649Z,1.90
2022-08-22T08:39:42.582Z,1.50
2022-08-22T08:42:15.499Z,1.02
2022-08-22T08:44:54.532Z,1.10
2022-08-22T08:47:58.708Z,1.27
2022-08-22T08:50:50.289Z,1.30
2022-08-22T08:53:45.203Z,2.00
2022-08-22T08:56:38.286Z,2.45
2022-08-22T08:59:26.212Z,1.33
2022-08-22T09:02:24.997Z,1.10
2022-08-22T09:05:19.663Z,1.20
2022-08-22T09:08:03.243Z,1.20
2022-08-22T09:10:39.431Z,1.23
2022-08-22T09:13:40.725Z,1.27
2022-08-22T09:16:22.473Z,1.15
2022-08-22T09:19:21.400Z,1.00
2022-08-22T09:22:50.637Z,1.00
2022-08-22T09:25:39.201Z,1.25
2022-08-22T09:28:29.273Z,0.93
2022-08-22T09:31:44.961Z,1.50
2022-08-22T09:34:48.636Z,1.00
2022-08-22T09:37:51.697Z,1.23
2022-08-22T09:40:29.278Z,1.30
2022-08-22T09:43:21.185Z,1.15
2022-08-22T09:46:01.927Z,1.20
2022-08-22T09:48:39.742Z,1.30
2022-08-22T09:51:32.624Z,1.10
2022-08-22T09:54:32.873Z,1.40
2022-08-22T09:57:00.737Z,1.65
2022-08-22T10:00:05.185Z,1.30
2022-08-22T10:02:52.505Z,1.42
2022-08-22T10:05:43.581Z,1.20
2022-08-22T10:08:33.321Z,1.40
2022-08-22T10:11:09.734Z,1.25
2022-08-22T10:14:04.520Z,1.20
2022-08-22T10:16:50.386Z,1.50
2022-08-22T10:19:36.655Z,1.10
2022-08-22T10:22:44.458Z,1.30
2022-08-22T10:25:18.578Z,1.33
2022-08-22T10:27:56.772Z,1.17
2022-08-22T10:30:47.184Z,1.10
2022-08-22T10:33:17.038Z,1.00
2022-08-22T10:35:43.992Z,1.20
2022-08-22T10:38:21.703Z,1.52
2022-08-22T10:41:09.926Z,1.45
2022-08-22T10:43:56.558Z,1.50
2022-08-22T10:46:42.171Z,1.65
2022-08-22T10:49:22.473Z,1.25
2022-08-22T10:52:17.009Z,1.10
2022-08-22T10:54:44.016Z,1.30
2022-08-22T10:57:36.361Z,1.50
2022-08-22T11:00:25.620Z,1.63
2022-08-22T11:03:18.688Z,1.20
2022-08-22T11:05:52.051Z,1.40
2022-08-22T11:08:40.397Z,1.15
2022-08-22T11:11:23.821Z,1.23
2022-08-22T11:14:14.145Z,0.93
2022-08-22T11:16:44.224Z,1.40
2022-08-22T11:19:46.859Z,1.20
2022-08-22T11:22:49.553Z,1.10
2022-08-22T11:25:35.844Z,1.20
2022-08-22T11:28:37.928Z,1.15
2022-08-22T11:31:47.098Z,1.17
2022-08-22T11:34:44.823Z,1.45
2022-08-22T11:37:42.867Z,1.50
2022-08-22T11:40:31.682Z,1.75
2022-08-22T11:43:18.557Z,0.98
2022-08-22T11:45:51.550Z,1.20
2022-08-22T11:48:34.258Z,1.20
2022-08-22T11:51:34.525Z,1.55
2022-08-22T11:54:31.241Z,1.50
2022-08-22T11:57:31.021Z,1.30
2022-08-22T12:00:53.265Z,1.40
2022-08-22T12:04:13.993Z,1.48
2022-08-22T12:06:50.253Z,1.30
2022-08-22T12:09:38.805Z,1.15
2022-08-22T12:12:14.741Z,1.30
2022-08-22T12:15:00.263Z,1.30
2022-08-22T12:18:10.141Z,1.08
2022-08-22T12:21:12.556Z,1.30
2022-08-22T12:24:19.285Z,1.20
2022-08-22T12:27:06.513Z,1.30
2022-08-22T12:30:04.391Z,1.20
2022-08-22T12:32:49.258Z,1.33
2022-08-22T12:35:42.580Z,1.13
2022-08-22T12:38:28.040Z,1.10
2022-08-22T12:41:28.063Z,1.25
2022-08-22T12:44:16.035Z,1.10
2022-08-22T12:46:49.916Z,1.33
2022-08-22T12:49:56.511Z,1.23
2022-08-22T12:52:50.466Z,1.20
2022-08-22T12:55:45.756Z,1.58
2022-08-22T12:58:15.630Z,1.10
2022-08-22T13:00:48.103Z,1.25
2022-08-22T13:03:35.247Z,1.30
2022-08-22T13:06:37.847Z,1.10
2022-08-22T13:09:28.557Z,1.40
2022-08-22T13:12:02.623Z,1.17
2022-08-22T13:14:34.058Z,1.23
2022-08-22T13:17:23.743Z,1.20
2022-08-22T13:20:22.469Z,1.20
2022-08-22T13:22:55.619Z,1.13
2022-08-22T13:25:26.668Z,1.20
2022-08-22T13:28:04.520Z,1.05
2022-08-22T13:30:40.749Z,1.00
2022-08-22T13:33:10.265Z,0.90
2022-08-22T13:35:45.352Z,1.10
2022-08-22T13:38:25.870Z,0.90
2022-08-22T13:40:56.676Z,1.33
2022-08-22T13:43:31.664Z,0.95
2022-08-22T13:48:49.835Z,1.13
2022-08-22T13:51:29.336Z,1.00
2022-08-22T13:54:20.294Z,0.90
2022-08-22T13:56:55.035Z,1.17
2022-08-22T13:59:51.060Z,1.23
2022-08-22T14:02:57.447Z,1.10
2022-08-22T14:05:44.645Z,1.73
2022-08-22T14:08:20.898Z,1.33
2022-08-22T14:11:06.631Z,1.20
2022-08-22T14:13:37.613Z,1.15
2022-08-22T14:16:12.587Z,1.00
2022-08-22T14:18:49.352Z,1.30
2022-08-22T14:21:26.103Z,1.00
2022-08-22T14:24:17.008Z,1.30
2022-08-22T14:26:54.831Z,1.00
2022-08-22T14:29:31.689Z,1.02
2022-08-22T14:32:35.136Z,1.00
2022-08-22T14:35:17.033Z,1.00
2022-08-22T14:38:17.221Z,1.20
2022-08-22T14:40:46.490Z,1.10
2022-08-22T14:43:31.312Z,1.30
2022-08-22T14:46:10.130Z,1.00
2022-08-22T14:48:48.693Z,1.10
2022-08-22T14:51:23.509Z,1.05
2022-08-22T14:53:51.443Z,1.20
2022-08-22T14:56:27.587Z,0.90
2022-08-22T14:58:57.867Z,1.40
2022-08-22T15:01:29.991Z,1.15
2022-08-22T15:04:11.124Z,0.80
2022-08-22T15:07:05.050Z,1.17
2022-08-22T15:09:37.373Z,1.00
2022-08-22T15:12:32.168Z,1.20
2022-08-22T15:15:06.876Z,1.20
2022-08-22T15:18:01.125Z,1.13
2022-08-22T15:20:35.648Z,1.13
2022-08-22T15:23:15.372Z,1.58
2022-08-22T15:25:47.000Z,0.85
2022-08-22T15:28:20.242Z,1.00
2022-08-22T15:31:05.696Z,1.10
2022-08-22T15:36:11.248Z,1.00
2022-08-22T15:38:48.079Z,1.27
2022-08-22T15:41:35.912Z,1.20
2022-08-22T15:44:14.860Z,1.17
2022-08-22T15:47:06.312Z,1.38
2022-08-22T15:49:50.757Z,1.50
2022-08-22T15:53:07.277Z,1.50
2022-08-22T15:55:35.807Z,1.10
2022-08-22T15:58:13.165Z,1.40
2022-08-22T16:01:02.727Z,1.50
2022-08-22T16:03:32.939Z,1.50
2022-08-22T16:06:09.735Z,1.23
2022-08-22T16:08:36.702Z,1.30
2022-08-22T16:11:03.735Z,1.23
2022-08-22T16:13:30.832Z,1.45
2022-08-22T16:16:32.340Z,1.40
2022-08-22T16:18:59.314Z,1.65
2022-08-22T16:21:26.313Z,1.80
2022-08-22T16:23:56.844Z,1.52
2022-08-22T16:26:29.607Z,1.25
2022-08-22T16:28:59.660Z,1.45
2022-08-22T16:31:48.498Z,1.35
2022-08-22T16:34:20.551Z,1.10
2022-08-22T16:37:18.127Z,1.35
2022-08-22T16:39:52.281Z,1.20
2022-08-22T16:42:22.497Z,1.27
2022-08-22T16:45:04.566Z,1.40
2022-08-22T16:47:32.730Z,1.55
2022-08-22T16:49:59.766Z,1.42
2022-08-22T16:52:26.842Z,1.60
2022-08-22T16:54:58.812Z,1.55
2022-08-22T16:57:59.314Z,1.38
2022-08-22T17:01:03.024Z,1.27
2022-08-22T17:03:36.109Z,1.30
2022-08-22T17:06:18.183Z,1.42
2022-08-22T17:09:44.731Z,1.27
2022-08-22T17:12:23.728Z,1.30
2022-08-22T17:14:56.634Z,1.13
2022-08-22T17:17:55.933Z,1.20
2022-08-22T17:20:40.329Z,1.48
2022-08-22T17:23:07.303Z,1.60
2022-08-22T17:25:52.773Z,1.35
2022-08-22T17:28:42.442Z,2.15
2022-08-22T17:31:39.442Z,1.58
2022-08-22T17:34:36.079Z,1.73
2022-08-22T17:37:16.867Z,1.65
2022-08-22T17:40:03.464Z,1.30
2022-08-22T17:42:42.910Z,1.27
2022-08-22T17:45:31.092Z,1.30
2022-08-22T17:48:12.396Z,1.30
2022-08-22T17:50:45.152Z,2.92
2022-08-22T17:53:33.625Z,1.50
2022-08-22T17:56:39.113Z,1.33
2022-08-22T17:59:21.082Z,1.73
2022-08-22T18:02:00.895Z,1.35
2022-08-22T18:04:49.761Z,1.50
2022-08-22T18:07:31.615Z,1.75
2022-08-22T18:10:09.096Z,1.27
2022-08-22T18:13:07.146Z,1.40
2022-08-22T18:15:44.120Z,1.63
2022-08-22T18:18:30.143Z,1.40
2022-08-22T18:21:18.564Z,1.60
2022-08-22T18:23:51.870Z,1.67
2022-08-22T18:27:00.161Z,1.75
2022-08-22T18:29:43.431Z,1.85
2022-08-22T18:32:29.242Z,1.73
2022-08-22T18:35:16.844Z,1.42
2022-08-22T18:37:45.083Z,1.48
2022-08-22T18:40:32.505Z,1.40
2022-08-22T18:43:05.814Z,1.60
2022-08-22T18:45:48.151Z,1.42
2022-08-22T18:48:34.258Z,1.52
2022-08-22T18:51:25.070Z,1.63
2022-08-22T18:53:55.020Z,1.75
2022-08-22T18:56:45.440Z,1.63
2022-08-22T18:59:18.497Z,1.55
2022-08-22T19:02:21.892Z,1.70
2022-08-22T19:05:12.177Z,2.10
2022-08-22T19:07:59.901Z,1.83
2022-08-22T19:11:00.807Z,1.30
2022-08-22T19:14:10.613Z,1.77
2022-08-22T19:17:15.624Z,2.05
2022-08-22T19:20:18.078Z,1.87
2022-08-22T19:22:51.164Z,1.60
2022-08-22T19:25:28.367Z,2.00
2022-08-22T19:28:10.443Z,2.30
2022-08-22T19:30:48.084Z,2.03
2022-08-22T19:33:19.586Z,1.60
2022-08-22T19:35:54.702Z,1.73
2022-08-22T19:38:56.407Z,1.63
2022-08-22T19:41:57.070Z,1.80
2022-08-22T19:44:27.152Z,2.72
2022-08-22T19:47:03.801Z,2.25
2022-08-22T19:49:35.927Z,2.50
2022-08-22T19:52:25.897Z,2.00
2022-08-22T19:55:03.961Z,2.72
2022-08-22T19:57:52.186Z,1.92
2022-08-22T20:00:47.485Z,2.00
2022-08-22T20:03:42.426Z,1.92
2022-08-22T20:06:43.832Z,2.20
2022-08-22T20:09:11.765Z,1.83
2022-08-22T20:11:42.367Z,2.20
2022-08-22T20:14:30.561Z,1.60
2022-08-22T20:17:10.422Z,2.10
2022-08-22T20:19:42.485Z,1.90
2022-08-22T20:22:30.616Z,2.28
2022-08-22T20:25:41.448Z,1.83
2022-08-22T20:28:33.272Z,2.38
2022-08-22T20:31:05.152Z,3.53
2022-08-22T20:33:39.054Z,2.83
2022-08-22T20:36:27.242Z,3.20
2022-08-22T20:38:59.810Z,3.92
2022-08-22T20:41:40.388Z,2.53
2022-08-22T20:44:12.659Z,3.28
2022-08-22T20:47:02.099Z,3.10
2022-08-22T20:49:37.441Z,3.20
2022-08-22T20:52:08.377Z,4.07
2022-08-22T20:54:41.141Z,2.78
2022-08-22T20:57:18.228Z,3.03
2022-08-22T20:59:57.092Z,3.60
2022-08-22T21:02:44.194Z,3.08
2022-08-22T21:05:14.338Z,6.18
2022-08-22T21:07:44.050Z,3.13
2022-08-22T21:10:46.700Z,4.40
2022-08-22T21:13:22.534Z,2.90
2022-08-22T21:15:56.105Z,2.47
2022-08-22T21:18:38.465Z,2.50
2022-08-22T21:21:25.736Z,2.80
2022-08-22T21:24:03.729Z,5.03
2022-08-22T21:26:50.875Z,4.15
2022-08-22T21:29:23.269Z,3.28
2022-08-22T21:31:59.048Z,3.38
2022-08-22T21:34:41.332Z,3.10
2022-08-22T21:37:48.716Z,3.10
2022-08-22T21:40:23.833Z,2.10
2022-08-22T21:43:07.516Z,4.07
2022-08-22T21:45:44.417Z,3.65
2022-08-22T21:48:35.059Z,2.70
2022-08-22T21:51:22.343Z,2.58
2022-08-22T21:53:49.676Z,2.22
2022-08-22T21:56:36.760Z,2.20
2022-08-22T21:59:50.886Z,2.00
2022-08-22T22:02:27.875Z,3.33
2022-08-22T22:04:55.011Z,2.03
2022-08-22T22:07:24.597Z,2.40
2022-08-22T22:09:54.468Z,2.20
2022-08-22T22:12:23.427Z,2.15
2022-08-22T22:14:51.084Z,2.03
2022-08-22T22:17:21.160Z,2.03
2022-08-22T22:19:48.434Z,1.90
2022-08-22T22:22:15.544Z,2.13
2022-08-22T22:24:42.566Z,1.83
2022-08-22T22:27:12.749Z,2.00
2022-08-22T22:29:43.648Z,1.88
2022-08-22T22:32:10.755Z,1.95
2022-08-22T22:34:40.304Z,1.77
2022-08-22T22:37:08.741Z,1.95
2022-08-22T22:39:36.840Z,1.75
2022-08-22T22:42:06.606Z,1.50
2022-08-22T22:44:33.697Z,1.73
2022-08-22T22:47:02.402Z,1.70
2022-08-22T22:49:31.043Z,1.90
2022-08-22T22:51:59.732Z,1.60
2022-08-22T22:54:27.588Z,1.50
2022-08-22T22:56:57.050Z,1.60
2022-08-22T22:59:26.011Z,1.50
2022-08-22T23:02:15.268Z,1.60
2022-08-22T23:04:46.476Z,1.98
2022-08-22T23:07:14.922Z,2.00
2022-08-22T23:09:42.819Z,2.08
2022-08-22T23:12:13.935Z,1.92
2022-08-22T23:14:41.051Z,2.47
2022-08-22T23:17:08.435Z,2.28
2022-08-22T23:19:36.138Z,2.30
2022-08-22T23:22:03.205Z,2.00
2022-08-22T23:24:31.220Z,1.90
2022-08-22T23:27:01.424Z,2.25
2022-08-22T23:29:29.139Z,2.03
2022-08-22T23:32:01.807Z,2.25
2022-08-22T23:34:35.407Z,1.90
2022-08-22T23:37:06.873Z,2.00
2022-08-22T23:39:36.114Z,2.00
2022-08-22T23:42:03.313Z,1.88
2022-08-22T23:44:32.451Z,1.75
2022-08-22T23:47:01.003Z,1.92
2022-08-22T23:49:29.658Z,2.20
2022-08-22T23:51:56.987Z,1.80
2022-08-22T23:54:25.158Z,1.70
2022-08-22T23:56:55.473Z,2.22
2022-08-22T23:59:28.071Z,1.90
